createdAt,value
2023-01-29T03:48:40.204Z,11.04
2023-01-29T08:18:40.505Z,43.35
2023-01-29T08:33:39.935Z,36.39
2023-01-29T09:03:40.513Z,13.13
2023-01-29T09:18:40.725Z,28.57
2023-01-29T09:33:40.914Z,15.68
2023-01-29T10:18:40.111Z,14.77
2023-01-29T11:03:40.327Z,11.42
2023-01-29T11:18:41.077Z,15.48
2023-01-29T11:33:40.541Z,10.53
2023-01-29T11:48:40.671Z,12.7
2023-01-29T12:03:40.426Z,15.34
2023-01-29T12:18:40.467Z,20.34
2023-01-29T12:33:40.782Z,18.53
2023-01-29T12:48:40.440Z,16.89
2023-01-29T13:03:40.239Z,14.92
2023-01-29T13:18:40.724Z,15.48
2023-01-29T13:33:41.050Z,15.62
2023-01-29T13:48:40.617Z,18.32
2023-01-29T14:18:40.414Z,19.6
2023-01-29T14:33:41.680Z,20.71
2023-01-29T14:48:39.868Z,20.33
2023-01-29T15:03:40.847Z,21.18
2023-01-29T15:18:40.747Z,22.51
2023-01-29T15:33:40.559Z,33.26
2023-01-29T15:48:40.471Z,27.31
2023-01-29T16:03:40.768Z,26.57
2023-01-29T16:18:47.678Z,36.01
2023-01-29T16:33:40.355Z,41.12
2023-01-29T17:03:40.461Z,36.96
2023-01-29T17:18:39.960Z,40.83
2023-01-29T17:33:40.630Z,30.01
2023-01-29T17:48:40.582Z,31.3
2023-01-29T18:03:40.848Z,37.97
2023-01-29T18:18:40.168Z,32.64
2023-01-29T18:33:40.563Z,38.17
2023-01-29T18:48:42.327Z,32.79
2023-01-29T19:03:40.777Z,45.58
2023-01-29T19:18:40.184Z,39.81
2023-01-29T19:33:40.263Z,44.07
2023-01-29T19:48:40.216Z,39.14
2023-01-29T20:03:40.311Z,40.01
2023-01-29T20:18:40.827Z,43.22
2023-01-29T20:33:40.846Z,32.07
2023-01-29T20:48:41.005Z,24.71
2023-01-29T21:03:41.264Z,29.39
2023-01-29T21:18:41.248Z,27.07
2023-01-29T21:33:52.887Z,26.15
2023-01-29T22:48:41.022Z,13.04
2023-01-29T23:03:40.823Z,10.85
